Time;durP1;ratioP1;P1;durP2;ratioP2;P2;SDS_P1;SDS_P2;PMS_P1;PMS_P2;Temp;Humidity;BMP_temperature;BMP_pressure;BME280_temperature;BME280_humidity;BME280_pressure;Samples;Min_cycle;Max_cycle;Signal;HPM_P1;HPM_P2
2021/10/05 05:53:50;;;;;;;6.35;2.30;;;;;;;11.64;nan;100630.09;4970368;28;20483;-81
2021/10/05 05:56:17;;;;;;;3.58;2.40;;;;;;;11.63;nan;100622.19;4970700;28;20047;-80
2021/10/05 05:58:43;;;;;;;3.80;2.58;;;;;;;11.62;nan;100618.69;4957917;28;20050;-81
2021/10/05 06:01:11;;;;;;;4.53;2.65;;;;;;;11.59;nan;100616.09;4956552;28;20053;-81
2021/10/05 06:03:38;;;;;;;8.00;3.33;;;;;;;11.65;nan;100613.31;4938983;28;20035;-81
2021/10/05 06:06:05;;;;;;;4.50;3.05;;;;;;;11.66;nan;100604.44;4976150;28;20096;-80
2021/10/05 06:08:31;;;;;;;5.88;2.65;;;;;;;11.69;nan;100606.19;4949293;28;20050;-81
2021/10/05 06:10:59;;;;;;;5.90;2.85;;;;;;;11.75;nan;100601.56;4956214;28;20042;-80
2021/10/05 06:13:26;;;;;;;6.50;2.70;;;;;;;11.76;nan;100598.00;4971273;28;20090;-81
2021/10/05 06:15:52;;;;;;;4.55;2.60;;;;;;;11.64;nan;100593.03;4971694;28;20076;-81
2021/10/05 06:18:19;;;;;;;3.95;2.70;;;;;;;11.64;nan;100595.69;4954710;28;20057;-81
2021/10/05 06:20:46;;;;;;;5.20;3.05;;;;;;;11.62;nan;100589.56;4956186;28;20057;-81
2021/10/05 06:23:13;;;;;;;5.32;2.83;;;;;;;11.67;nan;100586.78;4955116;28;20532;-82
2021/10/05 06:25:40;;;;;;;8.13;3.10;;;;;;;11.71;nan;100584.03;4956343;28;20059;-81
2021/10/05 06:28:08;;;;;;;6.10;3.00;;;;;;;11.91;nan;100580.03;4954195;28;20054;-82
2021/10/05 06:30:35;;;;;;;3.85;2.60;;;;;;;11.74;nan;100575.16;4972260;28;20528;-81
2021/10/05 06:33:03;;;;;;;10.57;3.45;;;;;;;11.76;nan;100575.97;4939192;28;20047;-81
2021/10/05 06:35:30;;;;;;;5.47;2.97;;;;;;;11.79;nan;100578.56;4972347;28;20373;-81
2021/10/05 06:37:58;;;;;;;5.63;2.65;;;;;;;11.67;nan;100563.84;4935220;29;20628;-81
2021/10/05 06:40:28;;;;;;;6.43;2.80;;;;;;;11.72;nan;100561.09;4937220;29;20048;-81
2021/10/05 06:42:55;;;;;;;9.23;3.25;;;;;;;11.74;nan;100546.91;4964620;28;20038;-84
2021/10/05 06:45:23;;;;;;;6.22;3.00;;;;;;;11.71;nan;100544.34;4972510;28;20045;-81
2021/10/05 06:47:49;;;;;;;5.53;3.00;;;;;;;11.69;nan;100543.53;4967117;28;20583;-81
2021/10/05 06:50:18;;;;;;;4.93;3.33;;;;;;;11.76;nan;100538.91;4970008;28;20144;-80
2021/10/05 06:52:46;;;;;;;5.72;2.90;;;;;;;11.77;nan;100533.59;4914463;28;20666;-78
2021/10/05 06:55:13;;;;;;;5.97;3.25;;;;;;;11.70;nan;100529.38;4955958;28;20163;-81
2021/10/05 06:57:40;;;;;;;6.95;3.22;;;;;;;11.71;nan;100532.91;4938182;28;20208;-79
2021/10/05 07:00:13;;;;;;;7.18;3.10;;;;;;;11.77;nan;100532.69;4971454;28;20043;-80
2021/10/05 07:02:44;;;;;;;5.28;2.67;;;;;;;11.76;nan;100525.69;4955314;28;20094;-80
2021/10/05 07:05:12;;;;;;;5.28;3.00;;;;;;;11.72;nan;100522.25;4955702;28;20094;-81
2021/10/05 07:07:47;;;;;;;6.72;3.33;;;;;;;11.75;nan;100508.94;4921550;28;20527;-80
2021/10/05 07:10:16;;;;;;;7.20;2.65;;;;;;;11.83;nan;100508.75;4938870;28;20057;-79
2021/10/05 07:12:43;;;;;;;6.43;3.35;;;;;;;11.93;nan;100504.06;4937853;28;20496;-79
2021/10/05 07:15:10;;;;;;;6.35;2.72;;;;;;;11.94;nan;100500.50;4940016;28;20062;-80
2021/10/05 07:17:37;;;;;;;7.75;3.20;;;;;;;11.99;nan;100494.16;4954050;28;20077;-80
2021/10/05 07:20:05;;;;;;;6.32;3.88;;;;;;;11.97;nan;100487.19;4938856;28;20113;-80
2021/10/05 07:22:32;;;;;;;8.38;3.80;;;;;;;11.92;nan;100486.44;4954899;28;20047;-80
2021/10/05 07:24:59;;;;;;;6.70;3.50;;;;;;;11.91;nan;100490.00;4952019;28;20045;-80
2021/10/05 07:27:26;;;;;;;5.35;3.63;;;;;;;11.86;nan;100474.28;4935894;28;20077;-80
2021/10/05 07:29:53;;;;;;;7.05;3.60;;;;;;;11.96;nan;100481.03;4975753;28;20086;-79
2021/10/05 07:32:20;;;;;;;5.07;3.22;;;;;;;11.90;nan;100481.19;4954108;28;20047;-82
2021/10/05 07:34:46;;;;;;;6.35;3.17;;;;;;;11.96;nan;100472.22;4939804;28;20598;-81
2021/10/05 07:37:13;;;;;;;5.15;3.45;;;;;;;11.96;nan;100467.78;4938229;28;20053;-83
2021/10/05 07:39:43;;;;;;;4.25;3.13;;;;;;;12.01;nan;100460.56;4938600;28;20043;-82
2021/10/05 07:42:10;;;;;;;6.95;3.65;;;;;;;12.13;nan;100463.78;4934408;29;21067;-82
2021/10/05 07:44:37;;;;;;;4.75;3.08;;;;;;;12.19;nan;100453.88;4952579;28;20062;-81
2021/10/05 07:47:03;;;;;;;6.55;3.83;;;;;;;12.23;nan;100452.84;4969492;28;20059;-81
2021/10/05 07:49:33;;;;;;;7.75;4.00;;;;;;;12.19;nan;100443.28;4970125;28;20462;-81
2021/10/05 07:52:00;;;;;;;6.93;3.70;;;;;;;12.13;nan;100438.16;4951795;28;20598;-81
2021/10/05 07:54:26;;;;;;;7.47;4.13;;;;;;;12.22;nan;100432.59;4954732;28;20050;-83
2021/10/05 07:56:53;;;;;;;5.75;4.55;;;;;;;12.20;nan;100428.25;4943409;28;20500;-82
2021/10/05 07:59:20;;;;;;;8.55;4.50;;;;;;;12.23;nan;100425.50;4934189;29;20093;-80
2021/10/05 08:01:50;;;;;;;7.43;4.50;;;;;;;12.21;nan;100422.91;4940166;28;20094;-82
2021/10/05 08:04:18;;;;;;;8.00;5.00;;;;;;;12.07;nan;100404.78;4969663;28;20047;-82
2021/10/05 08:06:44;;;;;;;9.32;5.28;;;;;;;12.09;nan;100402.94;4967321;28;20073;-82
2021/10/05 08:09:14;;;;;;;8.05;5.32;;;;;;;12.15;nan;100393.09;4918501;29;20735;-82
2021/10/05 08:11:42;;;;;;;9.23;5.65;;;;;;;12.18;nan;100391.19;4957550;28;20399;-81
2021/10/05 08:14:09;;;;;;;8.48;5.72;;;;;;;12.24;nan;100383.06;4953206;28;20097;-82
2021/10/05 08:16:36;;;;;;;9.95;6.30;;;;;;;12.20;nan;100385.88;4935316;29;20109;-80
2021/10/05 08:19:03;;;;;;;11.52;6.25;;;;;;;12.26;nan;100367.13;4933022;29;20051;-82
2021/10/05 08:21:30;;;;;;;10.80;6.68;;;;;;;12.29;nan;100365.25;4940884;28;20078;-82
2021/10/05 08:23:57;;;;;;;13.82;8.75;;;;;;;12.38;nan;100364.09;4958919;28;20456;-82
2021/10/05 08:26:23;;;;;;;10.57;7.53;;;;;;;12.42;nan;100359.56;4950831;29;20047;-83
2021/10/05 08:28:50;;;;;;;17.40;8.10;;;;;;;12.39;nan;100356.09;4948893;29;20067;-82
2021/10/05 08:31:20;;;;;;;13.70;8.35;;;;;;;12.34;nan;100352.72;4950544;29;20504;-83
2021/10/05 08:33:47;;;;;;;13.15;9.38;;;;;;;12.39;nan;100334.03;4934000;29;20136;-81
2021/10/05 08:36:16;;;;;;;13.85;9.13;;;;;;;12.36;nan;100324.41;4953763;28;20050;-83
2021/10/05 08:38:43;;;;;;;16.05;11.05;;;;;;;12.45;nan;100315.28;4946870;28;20043;-82
2021/10/05 08:41:10;;;;;;;15.45;9.90;;;;;;;12.46;nan;100309.06;4952703;28;20043;-82
2021/10/05 08:43:36;;;;;;;16.48;11.25;;;;;;;12.51;nan;100311.56;4952295;28;20050;-81
2021/10/05 08:46:04;;;;;;;18.45;12.98;;;;;;;12.55;nan;100318.50;4933633;29;20066;-80
2021/10/05 08:48:36;;;;;;;21.63;12.80;;;;;;;12.60;nan;100306.81;4961588;28;20050;-80
2021/10/05 08:51:03;;;;;;;18.52;12.10;;;;;;;12.57;nan;100298.97;4951923;28;20089;-80
2021/10/05 08:53:37;;;;;;;22.33;13.05;;;;;;;12.59;nan;100294.47;4968293;28;20038;-80
2021/10/05 08:56:06;;;;;;;19.30;14.82;;;;;;;12.73;nan;100293.13;4932725;28;20045;-81
2021/10/05 08:58:33;;;;;;;20.00;13.80;;;;;;;12.72;nan;100281.66;4950927;28;20043;-81
2021/10/05 09:01:16;;;;;;;21.13;15.55;;;;;;;12.79;nan;100277.03;4953916;28;20516;-80
2021/10/05 09:03:51;;;;;;;26.02;15.68;;;;;;;12.76;nan;100266.50;4936405;28;20496;-80
2021/10/05 09:06:20;;;;;;;21.95;14.02;;;;;;;12.84;nan;100259.16;4952966;28;20050;-80
2021/10/05 09:08:47;;;;;;;21.55;14.80;;;;;;;12.82;nan;100255.69;4967138;28;20034;-78
2021/10/05 09:11:16;;;;;;;20.73;14.07;;;;;;;12.86;nan;100255.53;4969410;28;20097;-80
2021/10/05 09:13:45;;;;;;;20.48;14.15;;;;;;;12.82;nan;100258.34;4968438;28;20115;-81
2021/10/05 09:16:26;;;;;;;24.42;16.17;;;;;;;12.81;nan;100251.31;4969846;28;20567;-81
2021/10/05 09:18:55;;;;;;;23.45;15.65;;;;;;;12.98;nan;100242.75;4981500;28;20129;-80
2021/10/05 09:21:24;;;;;;;24.05;16.42;;;;;;;12.96;nan;100234.84;4953510;28;20071;-80
2021/10/05 09:24:00;;;;;;;26.75;17.55;;;;;;;13.02;nan;100224.00;4917189;29;20051;-80
2021/10/05 09:26:38;;;;;;;27.40;17.05;;;;;;;13.01;nan;100219.63;4951994;28;20050;-80
2021/10/05 09:29:16;;;;;;;24.98;17.30;;;;;;;13.02;nan;100213.41;4951386;28;20081;-80
2021/10/05 09:31:49;;;;;;;25.83;17.95;;;;;;;13.01;nan;100203.72;4935075;28;20043;-80
2021/10/05 09:34:17;;;;;;;28.55;18.67;;;;;;;12.98;nan;100195.88;4952665;28;20051;-81
2021/10/05 09:36:44;;;;;;;20.73;15.00;;;;;;;12.91;nan;100189.94;4952987;28;20043;-81
2021/10/05 09:39:11;;;;;;;29.92;19.80;;;;;;;13.08;nan;100181.34;4967661;28;20051;-81
2021/10/05 09:41:38;;;;;;;29.58;20.15;;;;;;;13.18;nan;100172.09;4921216;28;20476;-81
2021/10/05 09:44:07;;;;;;;27.45;18.55;;;;;;;13.10;nan;100178.63;4951816;28;20070;-84
2021/10/05 09:46:35;;;;;;;25.55;17.98;;;;;;;13.08;nan;100188.44;4954223;28;20050;-80
2021/10/05 09:49:09;;;;;;;26.80;18.75;;;;;;;13.13;nan;100183.84;4951846;28;20115;-81
2021/10/05 09:51:36;;;;;;;30.08;20.27;;;;;;;13.05;nan;100172.66;4954901;28;20070;-80
2021/10/05 09:54:03;;;;;;;32.28;21.58;;;;;;;13.13;nan;100171.44;4936895;28;20047;-82
2021/10/05 09:56:30;;;;;;;28.33;20.70;;;;;;;13.18;nan;100168.59;4932338;28;20047;-80
2021/10/05 09:58:58;;;;;;;30.67;20.35;;;;;;;13.21;nan;100166.72;4955474;28;20100;-83
2021/10/05 10:01:26;;;;;;;31.40;21.05;;;;;;;13.16;nan;100163.34;4935739;28;20039;-82
2021/10/05 10:03:53;;;;;;;30.73;20.67;;;;;;;13.10;nan;100162.72;4936372;28;20109;-80
2021/10/05 10:06:20;;;;;;;35.53;23.50;;;;;;;13.18;nan;100155.31;4937794;28;20117;-82
2021/10/05 10:08:50;;;;;;;30.73;20.27;;;;;;;13.06;nan;100150.50;4919074;28;20046;-80
2021/10/05 10:11:17;;;;;;;33.92;21.65;;;;;;;13.22;nan;100152.53;4936913;28;20046;-81
2021/10/05 10:13:45;;;;;;;29.17;20.27;;;;;;;13.29;nan;100150.50;4951355;28;20047;-80
2021/10/05 10:16:13;;;;;;;28.50;20.05;;;;;;;13.23;nan;100164.00;4965405;28;20043;-81
2021/10/05 10:18:50;;;;;;;33.10;21.48;;;;;;;13.29;nan;100161.13;4931817;29;20050;-81
2021/10/05 10:21:27;;;;;;;32.60;21.75;;;;;;;13.24;nan;100147.16;4934120;29;20634;-81
2021/10/05 10:24:13;;;;;;;32.13;21.05;;;;;;;13.19;nan;100151.75;4936230;29;20089;-80
2021/10/05 10:26:44;;;;;;;36.90;24.13;;;;;;;13.37;nan;100145.78;4936977;29;20125;-80
2021/10/05 10:29:31;;;;;;;29.85;20.95;;;;;;;13.34;nan;100135.25;4910003;29;20043;-80
2021/10/05 10:32:09;;;;;;;30.83;18.77;;;;;;;13.41;nan;100146.50;4965229;28;20112;-79
2021/10/05 10:34:36;;;;;;;32.53;22.02;;;;;;;13.49;nan;100139.09;4979404;28;20117;-81
2021/10/05 10:37:14;;;;;;;31.83;22.05;;;;;;;13.44;nan;100141.91;4990409;28;20081;-81
2021/10/05 10:39:43;;;;;;;37.90;24.23;;;;;;;13.50;nan;100123.09;4966904;28;20089;-81
2021/10/05 10:42:10;;;;;;;28.65;18.67;;;;;;;13.45;nan;100129.50;4954686;28;20098;-81
2021/10/05 10:44:40;;;;;;;32.45;21.05;;;;;;;13.49;nan;100137.28;4955823;28;20500;-80
2021/10/05 10:47:16;;;;;;;33.25;23.38;;;;;;;13.57;nan;100134.34;4964128;28;20087;-81
2021/10/05 10:50:14;;;;;;;33.00;22.27;;;;;;;13.54;nan;100131.81;4904373;29;20043;-81
2021/10/05 10:52:48;;;;;;;38.28;23.52;;;;;;;13.55;nan;100130.88;4920890;28;20447;-81
2021/10/05 10:55:18;;;;;;;34.22;23.90;;;;;;;13.59;nan;100121.00;4939896;28;20050;-80
2021/10/05 10:57:56;;;;;;;32.08;22.08;;;;;;;13.64;nan;100127.84;4945229;28;20579;-80
2021/10/05 11:00:30;;;;;;;34.92;22.60;;;;;;;13.57;nan;100121.06;4951182;28;20527;-80
2021/10/05 11:03:01;;;;;;;27.77;19.58;;;;;;;13.58;nan;100128.09;4948900;28;20497;-80
2021/10/05 11:05:34;;;;;;;29.00;19.75;;;;;;;13.60;nan;100117.41;4968338;28;20071;-80
2021/10/05 11:08:09;;;;;;;34.97;23.05;;;;;;;13.63;nan;100107.53;4937835;28;20082;-79
2021/10/05 11:10:36;;;;;;;37.03;23.60;;;;;;;13.70;nan;100108.13;4955189;28;20073;-80
2021/10/05 11:13:04;;;;;;;32.35;22.05;;;;;;;13.74;nan;100101.78;4970349;28;20690;-80
2021/10/05 11:15:41;;;;;;;29.90;19.30;;;;;;;13.71;nan;100107.22;4971167;28;20101;-80
2021/10/05 11:18:10;;;;;;;34.63;22.52;;;;;;;13.74;nan;100101.78;4970905;28;20042;-82
2021/10/05 11:20:44;;;;;;;34.20;22.60;;;;;;;13.77;nan;100085.72;4936312;28;20107;-80
2021/10/05 11:23:11;;;;;;;32.15;21.85;;;;;;;13.76;nan;100087.50;4919335;28;20046;-80
2021/10/05 11:25:45;;;;;;;35.78;23.73;;;;;;;13.78;nan;100077.66;4939605;28;20106;-81
2021/10/05 11:28:12;;;;;;;29.13;20.75;;;;;;;13.74;nan;100075.22;4953216;28;20093;-80
2021/10/05 11:30:59;;;;;;;39.80;23.95;;;;;;;13.77;nan;100075.94;4959933;28;20043;-81
2021/10/05 11:33:28;;;;;;;33.22;22.67;;;;;;;13.82;nan;100064.28;4963236;28;20050;-80
2021/10/05 11:36:00;;;;;;;28.73;19.77;;;;;;;13.75;nan;100069.84;4982655;28;20042;-82
2021/10/05 11:38:42;;;;;;;25.90;19.13;;;;;;;13.75;nan;100063.69;4937145;28;20492;-82
2021/10/05 11:41:09;;;;;;;31.20;21.80;;;;;;;13.71;nan;100048.81;4970921;28;20125;-81
2021/10/05 11:43:38;;;;;;;26.40;18.70;;;;;;;13.73;nan;100039.84;4936942;28;20134;-80
2021/10/05 11:46:09;;;;;;;30.50;20.27;;;;;;;13.68;nan;100040.97;4937861;28;20623;-82
2021/10/05 11:48:38;;;;;;;27.77;19.88;;;;;;;13.67;nan;100034.81;4937007;28;20472;-82
2021/10/05 11:51:04;;;;;;;36.15;24.33;;;;;;;13.73;nan;100031.03;4953950;28;20534;-82
2021/10/05 11:53:36;;;;;;;28.98;20.50;;;;;;;13.72;nan;100040.78;5002332;23;20160;-84
2021/10/05 11:56:10;;;;;;;28.38;20.70;;;;;;;13.71;nan;100031.09;4926369;29;20047;-83
2021/10/05 11:58:49;;;;;;;36.03;24.63;;;;;;;13.77;nan;100020.19;4931428;29;20058;-84
2021/10/05 12:01:27;;;;;;;30.77;20.73;;;;;;;13.76;nan;100015.81;4922628;29;20072;-84
2021/10/05 12:04:06;;;;;;;27.92;19.80;;;;;;;13.76;nan;100004.34;4925576;29;20493;-83
2021/10/05 12:06:41;;;;;;;34.08;20.80;;;;;;;13.78;nan;100008.63;4912962;29;20665;-82
2021/10/05 12:09:16;;;;;;;34.08;23.08;;;;;;;13.76;nan;99996.38;4934761;29;20048;-84
2021/10/05 12:11:45;;;;;;;33.03;23.10;;;;;;;13.85;nan;100009.25;4921780;29;20123;-83
2021/10/05 12:14:14;;;;;;;32.33;22.83;;;;;;;13.85;nan;100009.25;4919402;29;20064;-84
2021/10/05 12:16:52;;;;;;;32.65;20.83;;;;;;;13.86;nan;100010.09;4919285;29;20067;-82
2021/10/05 12:19:28;;;;;;;36.95;23.70;;;;;;;13.89;nan;100016.16;4921766;29;20068;-83
2021/10/05 12:21:57;;;;;;;33.08;23.08;;;;;;;13.94;nan;100018.59;4935032;29;20050;-82
2021/10/05 12:25:00;;;;;;;42.97;24.92;;;;;;;14.00;nan;100005.03;4939969;29;20043;-83
2021/10/05 12:27:26;;;;;;;29.67;20.80;;;;;;;14.01;nan;100010.28;4924657;29;20043;-83
2021/10/05 12:29:59;;;;;;;35.58;25.02;;;;;;;14.07;nan;100010.03;4933816;29;20059;-81
2021/10/05 12:32:43;;;;;;;39.13;28.20;;;;;;;14.09;nan;100004.63;4883472;29;20183;-82
2021/10/05 12:35:25;;;;;;;34.83;24.00;;;;;;;14.12;nan;99998.31;4902325;29;20043;-83
2021/10/05 12:38:04;;;;;;;35.88;23.42;;;;;;;14.15;nan;99999.03;4912678;29;20805;-82
2021/10/05 12:40:51;;;;;;;32.53;22.63;;;;;;;14.20;nan;99993.50;4928637;29;20044;-83
2021/10/05 12:43:24;;;;;;;33.00;21.65;;;;;;;14.21;nan;99993.47;4897078;29;20051;-84
2021/10/05 12:45:53;;;;;;;28.52;20.95;;;;;;;14.23;nan;99993.38;4930150;29;20050;-83
2021/10/05 12:48:41;;;;;;;32.90;22.42;;;;;;;14.25;nan;99995.03;4926223;29;20490;-82
2021/10/05 12:51:15;;;;;;;29.27;19.85;;;;;;;14.26;nan;99988.78;4938074;29;20121;-84
2021/10/05 12:53:45;;;;;;;29.42;21.10;;;;;;;14.30;nan;99992.19;4920916;29;20182;-85
2021/10/05 12:56:12;;;;;;;33.42;22.85;;;;;;;14.36;nan;99999.84;4921621;29;20051;-84
2021/10/05 12:58:48;;;;;;;34.10;22.92;;;;;;;14.37;nan;99980.28;4903628;29;20056;-84
2021/10/05 13:01:18;;;;;;;34.05;22.60;;;;;;;14.43;nan;99992.44;4938173;29;20044;-83
2021/10/05 13:03:46;;;;;;;37.72;24.08;;;;;;;14.44;nan;99992.38;4935044;29;20055;-83
2021/10/05 13:06:14;;;;;;;29.38;20.95;;;;;;;14.46;nan;99995.88;4904006;29;20040;-83
2021/10/05 13:08:41;;;;;;;34.50;22.67;;;;;;;14.47;nan;99994.94;4916848;29;20051;-82
2021/10/05 13:11:08;;;;;;;37.45;26.45;;;;;;;14.59;nan;99996.13;4927753;29;20127;-83
2021/10/05 13:13:36;;;;;;;39.83;25.20;;;;;;;14.61;nan;99988.94;4942694;29;20334;-84
2021/10/05 13:16:03;;;;;;;35.00;24.05;;;;;;;14.61;nan;99995.13;4930806;29;20472;-83
2021/10/05 13:18:30;;;;;;;32.05;22.60;;;;;;;14.62;nan;99991.53;4960362;29;20108;-83
2021/10/05 13:20:57;;;;;;;35.40;23.38;;;;;;;14.66;nan;99986.09;4930481;29;20103;-83
2021/10/05 13:23:24;;;;;;;34.38;22.88;;;;;;;14.62;nan;99988.00;4920296;29;20067;-83
2021/10/05 13:25:50;;;;;;;29.80;21.15;;;;;;;14.58;nan;99986.44;4931901;29;20039;-82
2021/10/05 13:28:18;;;;;;;32.92;21.88;;;;;;;14.57;nan;99990.91;4929144;29;20044;-82
2021/10/05 13:30:44;;;;;;;36.60;24.77;;;;;;;14.62;nan;99972.91;4930168;29;20047;-82
2021/10/05 13:33:11;;;;;;;35.63;23.95;;;;;;;14.68;nan;99978.88;4940019;29;20058;-83
2021/10/05 13:35:38;;;;;;;36.22;25.27;;;;;;;14.69;nan;99983.25;4962422;29;20050;-82
2021/10/05 13:38:05;;;;;;;37.10;26.23;;;;;;;14.73;nan;99977.75;4927366;29;20140;-83
2021/10/05 13:40:33;;;;;;;42.03;26.15;;;;;;;14.82;nan;99979.09;4929962;29;20099;-83
2021/10/05 13:43:00;;;;;;;35.03;24.17;;;;;;;14.83;nan;99983.47;4944443;29;20051;-83
2021/10/05 13:45:27;;;;;;;36.15;23.17;;;;;;;14.80;nan;99984.50;4915364;29;20111;-82
2021/10/05 13:47:54;;;;;;;38.53;25.35;;;;;;;14.89;nan;99991.16;4945251;29;20046;-82
2021/10/05 13:50:21;;;;;;;36.95;26.48;;;;;;;14.98;nan;99989.84;4917570;29;20048;-83
2021/10/05 13:52:48;;;;;;;40.13;26.38;;;;;;;14.96;nan;99986.38;4898452;29;20055;-83
2021/10/05 13:55:15;;;;;;;38.88;26.05;;;;;;;15.01;nan;99993.19;4925641;29;20095;-82
2021/10/05 13:57:42;;;;;;;40.15;25.88;;;;;;;14.96;nan;99989.88;4933540;29;20047;-83
2021/10/05 14:00:09;;;;;;;41.88;27.20;;;;;;;15.02;nan;99989.59;4934158;29;20063;-82
2021/10/05 14:02:36;;;;;;;39.30;25.42;;;;;;;15.05;nan;99989.47;4944213;29;20131;-82
2021/10/05 14:05:05;;;;;;;32.40;24.08;;;;;;;14.95;nan;99985.50;4930790;29;20043;-83
2021/10/05 14:07:31;;;;;;;40.30;26.60;;;;;;;14.93;nan;99990.06;4927849;29;20048;-82
2021/10/05 14:09:58;;;;;;;40.45;26.30;;;;;;;15.00;nan;99982.66;4951414;29;20047;-82
2021/10/05 14:12:26;;;;;;;40.55;26.13;;;;;;;14.88;nan;99981.44;4933683;29;20105;-82
2021/10/05 14:14:53;;;;;;;37.10;24.58;;;;;;;14.83;nan;99987.00;4935066;29;20047;-81
2021/10/05 14:17:20;;;;;;;35.65;23.83;;;;;;;14.84;nan;99979.88;4920259;29;20044;-82
2021/10/05 14:19:48;;;;;;;33.33;24.00;;;;;;;14.85;nan;99987.78;4914431;29;20146;-82
2021/10/05 14:22:16;;;;;;;42.05;25.80;;;;;;;14.86;nan;99991.28;4943253;29;20040;-82
2021/10/05 14:24:44;;;;;;;39.58;25.42;;;;;;;14.88;nan;99981.44;4911019;29;20034;-82
2021/10/05 14:27:11;;;;;;;36.58;23.92;;;;;;;14.92;nan;99991.00;4938716;29;20051;-82
2021/10/05 14:29:38;;;;;;;33.58;23.05;;;;;;;14.82;nan;99995.03;4928143;29;20058;-82
2021/10/05 14:32:05;;;;;;;35.45;23.15;;;;;;;14.84;nan;99995.81;4930869;29;20047;-83
2021/10/05 14:34:31;;;;;;;33.13;22.10;;;;;;;14.83;nan;99983.47;4918405;29;20146;-83
2021/10/05 14:36:59;;;;;;;29.63;19.42;;;;;;;14.72;nan;99981.34;4946469;29;20043;-83
2021/10/05 14:39:25;;;;;;;31.92;21.02;;;;;;;14.72;nan;99980.47;4914758;29;20099;-84
2021/10/05 14:41:52;;;;;;;31.90;20.13;;;;;;;14.68;nan;99992.19;4901755;29;20053;-83
2021/10/05 14:44:20;;;;;;;27.98;19.08;;;;;;;14.67;nan;99979.81;4901925;29;20043;-83
2021/10/05 14:46:47;;;;;;;27.38;17.35;;;;;;;14.74;nan;99991.91;4928059;29;20044;-82
2021/10/05 14:49:15;;;;;;;26.00;18.27;;;;;;;14.75;nan;99989.16;4919935;29;20150;-82
2021/10/05 14:51:43;;;;;;;26.45;18.20;;;;;;;14.66;nan;99991.41;4952716;29;20047;-82
2021/10/05 14:54:10;;;;;;;24.83;17.50;;;;;;;14.67;nan;99987.81;4902105;29;20099;-82
2021/10/05 14:56:37;;;;;;;25.40;17.25;;;;;;;14.61;nan;99984.50;4918197;29;20110;-83
2021/10/05 14:59:04;;;;;;;25.05;17.00;;;;;;;14.49;nan;99981.56;4916343;29;20040;-82
2021/10/05 15:01:34;;;;;;;24.17;15.50;;;;;;;14.54;nan;99991.03;4905696;29;20051;-82
2021/10/05 15:04:04;;;;;;;20.13;14.57;;;;;;;14.60;nan;99989.88;4928949;29;20048;-82
2021/10/05 15:06:36;;;;;;;19.23;12.80;;;;;;;14.53;nan;99985.78;4922024;29;20662;-82
2021/10/05 15:09:03;;;;;;;21.77;13.95;;;;;;;14.54;nan;99983.06;4920272;29;20035;-82
2021/10/05 15:11:32;;;;;;;20.45;13.82;;;;;;;14.49;nan;99990.41;4910275;29;20055;-82
2021/10/05 15:13:59;;;;;;;18.67;13.35;;;;;;;14.43;nan;99990.66;4906947;29;20059;-82
2021/10/05 15:16:27;;;;;;;16.80;11.45;;;;;;;14.45;nan;99990.56;4938356;29;20623;-83
2021/10/05 15:18:57;;;;;;;15.93;11.45;;;;;;;14.36;nan;99994.53;4887576;29;20410;-83
2021/10/05 15:21:24;;;;;;;18.27;12.65;;;;;;;14.31;nan;99986.78;4912657;29;20063;-84
2021/10/05 15:23:53;;;;;;;22.25;15.13;;;;;;;14.34;nan;99989.28;4908084;29;20039;-84
2021/10/05 15:26:21;;;;;;;18.58;12.20;;;;;;;14.26;nan;99998.53;4904616;29;20572;-83
2021/10/05 15:28:53;;;;;;;16.88;11.27;;;;;;;14.40;nan;99992.59;4926763;29;20058;-83
2021/10/05 15:31:22;;;;;;;11.15;8.15;;;;;;;14.36;nan;99999.84;4916557;29;20394;-83
2021/10/05 15:33:55;;;;;;;9.43;7.77;;;;;;;14.28;nan;99989.56;4928652;29;20558;-83
2021/10/05 15:36:21;;;;;;;7.78;6.22;;;;;;;14.21;nan;99993.47;4934735;29;20040;-84
2021/10/05 15:38:51;;;;;;;4.30;3.90;;;;;;;14.19;nan;99991.78;4932600;29;20044;-84
2021/10/05 15:41:18;;;;;;;6.43;4.13;;;;;;;14.08;nan;100005.56;4918568;29;20051;-83
2021/10/05 15:43:45;;;;;;;5.65;3.90;;;;;;;14.06;nan;100002.13;4912807;29;20102;-84
2021/10/05 15:46:13;;;;;;;4.90;3.80;;;;;;;13.94;nan;100000.88;4922889;29;20050;-82
2021/10/05 15:48:43;;;;;;;4.35;3.33;;;;;;;13.93;nan;99999.13;4935161;29;20493;-82
2021/10/05 15:51:25;;;;;;;3.53;2.80;;;;;;;13.87;nan;100002.06;4935125;29;20053;-82
2021/10/05 15:53:52;;;;;;;3.63;2.85;;;;;;;13.80;nan;100012.13;4930645;29;20047;-82
2021/10/05 15:56:19;;;;;;;4.50;3.38;;;;;;;13.79;nan;100017.50;4933472;29;20043;-84
2021/10/05 15:58:54;;;;;;;3.33;2.45;;;;;;;13.80;nan;100016.56;4919571;29;20043;-81
2021/10/05 16:01:21;;;;;;;3.20;2.22;;;;;;;13.81;nan;100010.31;4914162;29;20481;-83
2021/10/05 16:03:48;;;;;;;2.97;2.63;;;;;;;13.76;nan;100017.63;4900344;29;20049;-82
2021/10/05 16:06:15;;;;;;;2.50;2.30;;;;;;;13.80;nan;100028.03;4913899;29;20559;-82
2021/10/05 16:08:44;;;;;;;3.20;1.80;;;;;;;13.72;nan;100029.31;4900620;29;20043;-84
2021/10/05 16:11:12;;;;;;;2.00;1.50;;;;;;;13.64;nan;100032.28;4905385;29;20052;-83
2021/10/05 16:13:40;;;;;;;1.80;1.58;;;;;;;13.58;nan;100047.63;4935121;29;20040;-81
2021/10/05 16:16:07;;;;;;;1.98;1.45;;;;;;;13.52;nan;100046.94;4916179;29;20510;-83
2021/10/05 16:18:35;;;;;;;2.05;1.50;;;;;;;13.47;nan;100046.28;4911270;29;20126;-82
2021/10/05 16:21:03;;;;;;;2.10;1.60;;;;;;;13.39;nan;100058.13;4916574;29;20062;-83
2021/10/05 16:23:30;;;;;;;1.77;1.48;;;;;;;13.36;nan;100059.09;4890420;29;20044;-82
2021/10/05 16:25:57;;;;;;;1.88;1.50;;;;;;;13.34;nan;100063.63;4929211;29;20048;-82
2021/10/05 16:28:23;;;;;;;1.77;1.40;;;;;;;13.24;nan;100064.94;4913280;29;20051;-80
2021/10/05 16:30:52;;;;;;;1.98;1.60;;;;;;;13.09;nan;100061.06;4929743;29;20129;-83
2021/10/05 16:33:23;;;;;;;1.75;1.65;;;;;;;13.05;nan;100067.44;4912419;29;20119;-81
2021/10/05 16:35:50;;;;;;;2.13;1.83;;;;;;;13.03;nan;100071.06;4930954;29;20050;-81
2021/10/05 16:38:17;;;;;;;1.92;1.70;;;;;;;12.96;nan;100066.03;4936776;29;20106;-82
2021/10/05 16:40:44;;;;;;;2.58;2.35;;;;;;;12.91;nan;100083.03;4930018;29;20433;-83
2021/10/05 16:43:10;;;;;;;3.13;2.83;;;;;;;12.77;nan;100074.75;4907360;29;20568;-81
2021/10/05 16:45:38;;;;;;;3.10;2.80;;;;;;;12.74;nan;100086.34;4908621;29;20055;-82
2021/10/05 16:48:05;;;;;;;3.35;3.05;;;;;;;12.62;nan;100081.50;4924557;29;20058;-81
2021/10/05 16:50:34;;;;;;;3.78;3.38;;;;;;;12.66;nan;100081.31;4930556;29;20044;-82
2021/10/05 16:53:02;;;;;;;3.92;3.53;;;;;;;12.59;nan;100084.25;4912376;29;20486;-82
2021/10/05 16:55:29;;;;;;;4.00;3.63;;;;;;;12.57;nan;100088.75;4898572;29;20422;-83
2021/10/05 16:57:56;;;;;;;4.10;3.20;;;;;;;12.53;nan;100087.16;4905543;29;20040;-81
2021/10/05 17:00:23;;;;;;;3.72;3.40;;;;;;;12.56;nan;100089.69;4899132;29;20500;-81
2021/10/05 17:02:49;;;;;;;3.83;3.42;;;;;;;12.45;nan;100084.81;4905812;29;20035;-82
2021/10/05 17:05:16;;;;;;;4.55;3.63;;;;;;;12.49;nan;100086.41;4914204;29;20056;-81
2021/10/05 17:07:43;;;;;;;4.65;3.50;;;;;;;12.53;nan;100079.22;4919940;29;20099;-84
2021/10/05 17:10:10;;;;;;;4.88;3.88;;;;;;;12.39;nan;100093.81;4918905;29;20047;-83
2021/10/05 17:12:37;;;;;;;4.78;4.00;;;;;;;12.45;nan;100083.94;4887577;29;20095;-81
2021/10/05 17:15:09;;;;;;;4.47;3.33;;;;;;;12.48;nan;100094.41;4917704;29;20039;-81
2021/10/05 17:17:36;;;;;;;4.00;3.40;;;;;;;12.39;nan;100098.25;4897704;29;20079;-81
2021/10/05 17:20:04;;;;;;;3.92;3.55;;;;;;;12.35;nan;100092.19;4917101;29;20065;-83
2021/10/05 17:22:30;;;;;;;3.97;3.38;;;;;;;12.33;nan;100085.22;4896265;29;22467;-83
2021/10/05 17:24:57;;;;;;;3.80;3.38;;;;;;;12.35;nan;100097.50;4898715;29;20054;-83
2021/10/05 17:27:25;;;;;;;3.65;3.05;;;;;;;12.34;nan;100090.47;4908382;29;20047;-83
2021/10/05 17:29:52;;;;;;;4.00;3.33;;;;;;;12.35;nan;100086.91;4915872;29;20079;-83
2021/10/05 17:32:19;;;;;;;4.00;3.00;;;;;;;12.38;nan;100092.09;4902632;29;20052;-80
2021/10/05 17:34:46;;;;;;;3.53;2.63;;;;;;;12.42;nan;100091.97;4951175;28;20046;-82
2021/10/05 17:37:13;;;;;;;3.55;2.97;;;;;;;12.36;nan;100091.31;4927272;29;20048;-81